sensor_id;sensor_type;location;lat;lon;timestamp;P1;durP1;ratioP1;P2;durP2;ratioP2
49728;SDS011;66333;49.798;10.968;2024-01-25T00:01:32;7.10;;;1.65;;
49728;SDS011;66333;49.798;10.968;2024-01-25T00:04:01;5.35;;;1.58;;
49728;SDS011;66333;49.798;10.968;2024-01-25T00:06:33;5.47;;;1.50;;
49728;SDS011;66333;49.798;10.968;2024-01-25T00:09:01;6.57;;;1.70;;
49728;SDS011;66333;49.798;10.968;2024-01-25T00:11:30;5.78;;;1.70;;
49728;SDS011;66333;49.798;10.968;2024-01-25T00:14:01;5.10;;;1.48;;
49728;SDS011;66333;49.798;10.968;2024-01-25T00:16:30;5.85;;;1.50;;
49728;SDS011;66333;49.798;10.968;2024-01-25T00:19:00;6.38;;;1.67;;
49728;SDS011;66333;49.798;10.968;2024-01-25T00:21:42;5.75;;;1.40;;
49728;SDS011;66333;49.798;10.968;2024-01-25T00:24:11;5.00;;;1.38;;
49728;SDS011;66333;49.798;10.968;2024-01-25T00:26:47;5.43;;;1.50;;
49728;SDS011;66333;49.798;10.968;2024-01-25T00:29:19;5.82;;;1.73;;
49728;SDS011;66333;49.798;10.968;2024-01-25T00:31:49;6.90;;;1.80;;
49728;SDS011;66333;49.798;10.968;2024-01-25T00:34:20;5.05;;;1.60;;
49728;SDS011;66333;49.798;10.968;2024-01-25T00:37:01;8.43;;;1.77;;
49728;SDS011;66333;49.798;10.968;2024-01-25T00:39:29;6.05;;;1.60;;
49728;SDS011;66333;49.798;10.968;2024-01-25T00:42:06;7.85;;;1.90;;
49728;SDS011;66333;49.798;10.968;2024-01-25T00:44:40;7.28;;;1.67;;
49728;SDS011;66333;49.798;10.968;2024-01-25T00:47:11;8.10;;;1.70;;
49728;SDS011;66333;49.798;10.968;2024-01-25T00:49:45;6.40;;;1.75;;
49728;SDS011;66333;49.798;10.968;2024-01-25T00:52:18;6.00;;;1.48;;
49728;SDS011;66333;49.798;10.968;2024-01-25T00:54:46;5.43;;;1.45;;
49728;SDS011;66333;49.798;10.968;2024-01-25T00:57:15;5.75;;;1.60;;
49728;SDS011;66333;49.798;10.968;2024-01-25T00:59:55;5.60;;;1.60;;
49728;SDS011;66333;49.798;10.968;2024-01-25T01:02:23;6.45;;;1.48;;
49728;SDS011;66333;49.798;10.968;2024-01-25T01:04:56;5.07;;;1.40;;
49728;SDS011;66333;49.798;10.968;2024-01-25T01:07:45;6.10;;;1.92;;
49728;SDS011;66333;49.798;10.968;2024-01-25T01:10:15;6.03;;;1.50;;
49728;SDS011;66333;49.798;10.968;2024-01-25T01:12:43;6.15;;;1.67;;
49728;SDS011;66333;49.798;10.968;2024-01-25T01:15:14;5.75;;;1.58;;
49728;SDS011;66333;49.798;10.968;2024-01-25T01:17:44;5.97;;;1.58;;
49728;SDS011;66333;49.798;10.968;2024-01-25T01:20:14;4.88;;;1.30;;
49728;SDS011;66333;49.798;10.968;2024-01-25T01:22:46;5.28;;;1.42;;
49728;SDS011;66333;49.798;10.968;2024-01-25T01:25:17;5.60;;;1.63;;
49728;SDS011;66333;49.798;10.968;2024-01-25T01:27:46;5.93;;;1.60;;
49728;SDS011;66333;49.798;10.968;2024-01-25T01:30:16;6.05;;;1.83;;
49728;SDS011;66333;49.798;10.968;2024-01-25T01:32:46;5.15;;;1.63;;
49728;SDS011;66333;49.798;10.968;2024-01-25T01:35:15;6.00;;;2.22;;
49728;SDS011;66333;49.798;10.968;2024-01-25T01:37:47;5.50;;;1.60;;
49728;SDS011;66333;49.798;10.968;2024-01-25T01:40:18;5.60;;;1.70;;
49728;SDS011;66333;49.798;10.968;2024-01-25T01:42:47;7.00;;;1.77;;
49728;SDS011;66333;49.798;10.968;2024-01-25T01:45:15;6.07;;;1.75;;
49728;SDS011;66333;49.798;10.968;2024-01-25T01:47:45;5.55;;;1.67;;
49728;SDS011;66333;49.798;10.968;2024-01-25T01:50:16;5.95;;;1.70;;
49728;SDS011;66333;49.798;10.968;2024-01-25T01:52:42;5.53;;;1.73;;
49728;SDS011;66333;49.798;10.968;2024-01-25T01:55:13;5.82;;;1.50;;
49728;SDS011;66333;49.798;10.968;2024-01-25T01:57:39;6.38;;;1.65;;
49728;SDS011;66333;49.798;10.968;2024-01-25T02:00:16;5.20;;;1.58;;
49728;SDS011;66333;49.798;10.968;2024-01-25T02:02:47;5.68;;;1.80;;
49728;SDS011;66333;49.798;10.968;2024-01-25T02:05:16;6.15;;;1.63;;
49728;SDS011;66333;49.798;10.968;2024-01-25T02:07:46;5.57;;;1.60;;
49728;SDS011;66333;49.798;10.968;2024-01-25T02:10:30;5.65;;;1.50;;
49728;SDS011;66333;49.798;10.968;2024-01-25T02:13:00;6.15;;;1.50;;
49728;SDS011;66333;49.798;10.968;2024-01-25T02:15:27;5.68;;;1.70;;
49728;SDS011;66333;49.798;10.968;2024-01-25T02:17:54;7.57;;;1.90;;
49728;SDS011;66333;49.798;10.968;2024-01-25T02:20:30;6.10;;;1.70;;
49728;SDS011;66333;49.798;10.968;2024-01-25T02:23:04;5.82;;;1.60;;
49728;SDS011;66333;49.798;10.968;2024-01-25T02:25:32;6.28;;;1.63;;
49728;SDS011;66333;49.798;10.968;2024-01-25T02:28:03;5.57;;;1.70;;
49728;SDS011;66333;49.798;10.968;2024-01-25T02:30:33;6.20;;;1.55;;
49728;SDS011;66333;49.798;10.968;2024-01-25T02:33:03;6.78;;;1.85;;
49728;SDS011;66333;49.798;10.968;2024-01-25T02:35:34;5.07;;;1.30;;
49728;SDS011;66333;49.798;10.968;2024-01-25T02:38:10;6.80;;;1.58;;
49728;SDS011;66333;49.798;10.968;2024-01-25T02:40:40;5.30;;;1.70;;
49728;SDS011;66333;49.798;10.968;2024-01-25T02:43:10;5.10;;;1.30;;
49728;SDS011;66333;49.798;10.968;2024-01-25T02:45:40;5.63;;;1.52;;
49728;SDS011;66333;49.798;10.968;2024-01-25T02:48:10;6.32;;;1.50;;
49728;SDS011;66333;49.798;10.968;2024-01-25T02:50:39;5.50;;;1.58;;
49728;SDS011;66333;49.798;10.968;2024-01-25T02:53:09;5.63;;;1.60;;
49728;SDS011;66333;49.798;10.968;2024-01-25T02:55:40;5.75;;;1.45;;
49728;SDS011;66333;49.798;10.968;2024-01-25T02:58:08;6.53;;;1.70;;
49728;SDS011;66333;49.798;10.968;2024-01-25T03:00:36;4.70;;;1.27;;
49728;SDS011;66333;49.798;10.968;2024-01-25T03:03:06;4.82;;;1.38;;
49728;SDS011;66333;49.798;10.968;2024-01-25T03:05:34;6.25;;;1.48;;
49728;SDS011;66333;49.798;10.968;2024-01-25T03:08:04;6.03;;;1.83;;
49728;SDS011;66333;49.798;10.968;2024-01-25T03:10:36;6.40;;;1.25;;
49728;SDS011;66333;49.798;10.968;2024-01-25T03:13:04;5.57;;;1.65;;
49728;SDS011;66333;49.798;10.968;2024-01-25T03:15:32;6.50;;;1.20;;
49728;SDS011;66333;49.798;10.968;2024-01-25T03:17:58;5.55;;;1.50;;
49728;SDS011;66333;49.798;10.968;2024-01-25T03:20:27;5.40;;;1.50;;
49728;SDS011;66333;49.798;10.968;2024-01-25T03:22:58;6.40;;;1.60;;
49728;SDS011;66333;49.798;10.968;2024-01-25T03:25:30;6.97;;;1.60;;
49728;SDS011;66333;49.798;10.968;2024-01-25T03:28:09;5.95;;;1.60;;
49728;SDS011;66333;49.798;10.968;2024-01-25T03:30:42;6.43;;;1.95;;
49728;SDS011;66333;49.798;10.968;2024-01-25T03:33:25;6.03;;;1.92;;
49728;SDS011;66333;49.798;10.968;2024-01-25T03:35:56;6.03;;;1.70;;
49728;SDS011;66333;49.798;10.968;2024-01-25T03:38:27;4.60;;;1.50;;
49728;SDS011;66333;49.798;10.968;2024-01-25T03:40:55;5.80;;;1.50;;
49728;SDS011;66333;49.798;10.968;2024-01-25T03:43:31;7.63;;;1.70;;
49728;SDS011;66333;49.798;10.968;2024-01-25T03:46:01;5.35;;;1.58;;
49728;SDS011;66333;49.798;10.968;2024-01-25T03:48:32;5.93;;;1.48;;
49728;SDS011;66333;49.798;10.968;2024-01-25T03:50:59;5.50;;;1.73;;
49728;SDS011;66333;49.798;10.968;2024-01-25T03:53:36;5.88;;;1.50;;
49728;SDS011;66333;49.798;10.968;2024-01-25T03:56:10;5.73;;;1.57;;
49728;SDS011;66333;49.798;10.968;2024-01-25T03:58:57;7.45;;;1.85;;
49728;SDS011;66333;49.798;10.968;2024-01-25T04:01:25;5.38;;;1.50;;
49728;SDS011;66333;49.798;10.968;2024-01-25T04:03:55;6.68;;;2.00;;
49728;SDS011;66333;49.798;10.968;2024-01-25T04:06:22;7.25;;;1.90;;
49728;SDS011;66333;49.798;10.968;2024-01-25T04:08:53;5.68;;;1.70;;
49728;SDS011;66333;49.798;10.968;2024-01-25T04:11:23;5.38;;;1.50;;
49728;SDS011;66333;49.798;10.968;2024-01-25T04:13:56;5.78;;;1.50;;
49728;SDS011;66333;49.798;10.968;2024-01-25T04:16:24;7.20;;;1.60;;
49728;SDS011;66333;49.798;10.968;2024-01-25T04:18:56;6.78;;;1.70;;
49728;SDS011;66333;49.798;10.968;2024-01-25T04:21:22;4.78;;;1.50;;
49728;SDS011;66333;49.798;10.968;2024-01-25T04:23:50;5.45;;;1.75;;
49728;SDS011;66333;49.798;10.968;2024-01-25T04:26:19;6.60;;;1.60;;
49728;SDS011;66333;49.798;10.968;2024-01-25T04:28:50;5.83;;;1.70;;
49728;SDS011;66333;49.798;10.968;2024-01-25T04:31:22;4.60;;;1.40;;
49728;SDS011;66333;49.798;10.968;2024-01-25T04:33:57;5.50;;;1.42;;
49728;SDS011;66333;49.798;10.968;2024-01-25T04:36:25;6.60;;;1.63;;
49728;SDS011;66333;49.798;10.968;2024-01-25T04:38:56;4.63;;;1.25;;
49728;SDS011;66333;49.798;10.968;2024-01-25T04:41:27;5.83;;;1.73;;
49728;SDS011;66333;49.798;10.968;2024-01-25T04:44:09;4.93;;;1.63;;
49728;SDS011;66333;49.798;10.968;2024-01-25T04:46:41;6.05;;;1.55;;
49728;SDS011;66333;49.798;10.968;2024-01-25T04:49:13;7.27;;;1.87;;
49728;SDS011;66333;49.798;10.968;2024-01-25T04:51:43;5.80;;;1.33;;
49728;SDS011;66333;49.798;10.968;2024-01-25T04:54:15;5.40;;;1.63;;
49728;SDS011;66333;49.798;10.968;2024-01-25T04:56:46;5.95;;;1.88;;
49728;SDS011;66333;49.798;10.968;2024-01-25T04:59:13;6.13;;;1.60;;
49728;SDS011;66333;49.798;10.968;2024-01-25T05:01:43;5.60;;;1.70;;
49728;SDS011;66333;49.798;10.968;2024-01-25T05:04:14;4.32;;;1.45;;
49728;SDS011;66333;49.798;10.968;2024-01-25T05:06:42;6.30;;;1.58;;
49728;SDS011;66333;49.798;10.968;2024-01-25T05:09:14;6.45;;;1.60;;
49728;SDS011;66333;49.798;10.968;2024-01-25T05:11:44;5.20;;;1.40;;
49728;SDS011;66333;49.798;10.968;2024-01-25T05:14:24;5.17;;;1.60;;
49728;SDS011;66333;49.798;10.968;2024-01-25T05:17:00;5.03;;;1.40;;
49728;SDS011;66333;49.798;10.968;2024-01-25T05:19:27;6.87;;;2.00;;
49728;SDS011;66333;49.798;10.968;2024-01-25T05:21:55;7.70;;;1.67;;
49728;SDS011;66333;49.798;10.968;2024-01-25T05:24:23;5.50;;;1.60;;
49728;SDS011;66333;49.798;10.968;2024-01-25T05:26:54;5.13;;;1.60;;
49728;SDS011;66333;49.798;10.968;2024-01-25T05:29:34;5.03;;;1.40;;
49728;SDS011;66333;49.798;10.968;2024-01-25T05:32:11;5.53;;;1.60;;
49728;SDS011;66333;49.798;10.968;2024-01-25T05:34:39;6.80;;;1.80;;
49728;SDS011;66333;49.798;10.968;2024-01-25T05:37:05;5.78;;;1.60;;
49728;SDS011;66333;49.798;10.968;2024-01-25T05:39:33;5.65;;;1.50;;
49728;SDS011;66333;49.798;10.968;2024-01-25T05:42:04;5.65;;;1.80;;
49728;SDS011;66333;49.798;10.968;2024-01-25T05:44:41;5.13;;;1.25;;
49728;SDS011;66333;49.798;10.968;2024-01-25T05:47:25;4.70;;;1.70;;
49728;SDS011;66333;49.798;10.968;2024-01-25T05:49:55;6.05;;;1.95;;
49728;SDS011;66333;49.798;10.968;2024-01-25T05:52:31;5.93;;;1.85;;
49728;SDS011;66333;49.798;10.968;2024-01-25T05:55:13;6.10;;;1.85;;
49728;SDS011;66333;49.798;10.968;2024-01-25T05:57:42;7.63;;;2.10;;
49728;SDS011;66333;49.798;10.968;2024-01-25T06:00:14;12.40;;;3.40;;
49728;SDS011;66333;49.798;10.968;2024-01-25T06:02:56;9.40;;;2.47;;
49728;SDS011;66333;49.798;10.968;2024-01-25T06:05:31;7.30;;;2.75;;
49728;SDS011;66333;49.798;10.968;2024-01-25T06:07:58;13.90;;;3.27;;
49728;SDS011;66333;49.798;10.968;2024-01-25T06:10:40;10.53;;;3.07;;
49728;SDS011;66333;49.798;10.968;2024-01-25T06:13:07;10.47;;;3.10;;
49728;SDS011;66333;49.798;10.968;2024-01-25T06:15:38;10.38;;;3.17;;
49728;SDS011;66333;49.798;10.968;2024-01-25T06:18:11;12.40;;;3.53;;
49728;SDS011;66333;49.798;10.968;2024-01-25T06:20:41;10.18;;;3.17;;
49728;SDS011;66333;49.798;10.968;2024-01-25T06:23:11;13.05;;;3.83;;
49728;SDS011;66333;49.798;10.968;2024-01-25T06:25:40;10.73;;;3.27;;
49728;SDS011;66333;49.798;10.968;2024-01-25T06:28:07;10.43;;;3.17;;
49728;SDS011;66333;49.798;10.968;2024-01-25T06:30:35;13.97;;;3.60;;
49728;SDS011;66333;49.798;10.968;2024-01-25T06:33:04;9.23;;;3.23;;
49728;SDS011;66333;49.798;10.968;2024-01-25T06:35:47;8.73;;;3.07;;
49728;SDS011;66333;49.798;10.968;2024-01-25T06:38:23;8.40;;;2.80;;
49728;SDS011;66333;49.798;10.968;2024-01-25T06:40:53;8.75;;;2.65;;
49728;SDS011;66333;49.798;10.968;2024-01-25T06:43:22;9.13;;;3.40;;
49728;SDS011;66333;49.798;10.968;2024-01-25T06:45:48;9.07;;;3.28;;
49728;SDS011;66333;49.798;10.968;2024-01-25T06:48:20;7.37;;;3.20;;
49728;SDS011;66333;49.798;10.968;2024-01-25T06:51:04;10.23;;;3.03;;
49728;SDS011;66333;49.798;10.968;2024-01-25T06:53:39;8.88;;;2.95;;
49728;SDS011;66333;49.798;10.968;2024-01-25T06:56:10;8.13;;;2.70;;
49728;SDS011;66333;49.798;10.968;2024-01-25T06:58:40;8.43;;;2.83;;
49728;SDS011;66333;49.798;10.968;2024-01-25T07:01:08;11.27;;;3.00;;
49728;SDS011;66333;49.798;10.968;2024-01-25T07:03:37;8.37;;;3.00;;
49728;SDS011;66333;49.798;10.968;2024-01-25T07:08:46;10.33;;;3.00;;
49728;SDS011;66333;49.798;10.968;2024-01-25T07:11:15;8.80;;;3.27;;
49728;SDS011;66333;49.798;10.968;2024-01-25T07:13:43;9.93;;;3.00;;
49728;SDS011;66333;49.798;10.968;2024-01-25T07:16:09;10.90;;;3.17;;
49728;SDS011;66333;49.798;10.968;2024-01-25T07:18:38;8.48;;;3.03;;
49728;SDS011;66333;49.798;10.968;2024-01-25T07:21:06;9.93;;;3.08;;
49728;SDS011;66333;49.798;10.968;2024-01-25T07:23:39;7.35;;;2.72;;
49728;SDS011;66333;49.798;10.968;2024-01-25T07:26:18;7.50;;;3.15;;
49728;SDS011;66333;49.798;10.968;2024-01-25T07:28:45;7.93;;;2.60;;
49728;SDS011;66333;49.798;10.968;2024-01-25T07:31:15;6.87;;;3.00;;
49728;SDS011;66333;49.798;10.968;2024-01-25T07:33:47;9.57;;;2.80;;
49728;SDS011;66333;49.798;10.968;2024-01-25T07:36:16;9.77;;;2.83;;
49728;SDS011;66333;49.798;10.968;2024-01-25T07:38:47;9.83;;;2.87;;
49728;SDS011;66333;49.798;10.968;2024-01-25T07:41:15;7.30;;;2.30;;
49728;SDS011;66333;49.798;10.968;2024-01-25T07:43:51;8.68;;;2.72;;
49728;SDS011;66333;49.798;10.968;2024-01-25T07:46:22;9.27;;;2.97;;
49728;SDS011;66333;49.798;10.968;2024-01-25T07:48:50;9.50;;;3.03;;
49728;SDS011;66333;49.798;10.968;2024-01-25T07:51:22;8.70;;;3.10;;
49728;SDS011;66333;49.798;10.968;2024-01-25T07:54:07;7.63;;;2.37;;
49728;SDS011;66333;49.798;10.968;2024-01-25T07:56:34;12.57;;;3.63;;
49728;SDS011;66333;49.798;10.968;2024-01-25T07:59:04;9.53;;;3.43;;
49728;SDS011;66333;49.798;10.968;2024-01-25T08:01:36;9.33;;;3.03;;
49728;SDS011;66333;49.798;10.968;2024-01-25T08:04:14;8.77;;;2.47;;
49728;SDS011;66333;49.798;10.968;2024-01-25T08:06:43;9.50;;;3.30;;
49728;SDS011;66333;49.798;10.968;2024-01-25T08:09:20;9.80;;;2.70;;
49728;SDS011;66333;49.798;10.968;2024-01-25T08:11:48;8.13;;;2.83;;
49728;SDS011;66333;49.798;10.968;2024-01-25T08:14:19;9.03;;;2.70;;
49728;SDS011;66333;49.798;10.968;2024-01-25T08:16:48;8.87;;;2.67;;
49728;SDS011;66333;49.798;10.968;2024-01-25T08:19:24;11.83;;;2.87;;
49728;SDS011;66333;49.798;10.968;2024-01-25T08:21:52;8.77;;;3.13;;
49728;SDS011;66333;49.798;10.968;2024-01-25T08:24:25;8.20;;;2.77;;
49728;SDS011;66333;49.798;10.968;2024-01-25T08:26:58;9.17;;;2.47;;
49728;SDS011;66333;49.798;10.968;2024-01-25T08:29:28;8.10;;;2.77;;
49728;SDS011;66333;49.798;10.968;2024-01-25T08:31:58;7.77;;;2.90;;
49728;SDS011;66333;49.798;10.968;2024-01-25T08:34:26;9.57;;;2.97;;
49728;SDS011;66333;49.798;10.968;2024-01-25T08:36:56;9.70;;;2.53;;
49728;SDS011;66333;49.798;10.968;2024-01-25T08:39:27;9.13;;;2.90;;
49728;SDS011;66333;49.798;10.968;2024-01-25T08:41:54;6.80;;;2.60;;
49728;SDS011;66333;49.798;10.968;2024-01-25T08:44:25;7.77;;;2.87;;
49728;SDS011;66333;49.798;10.968;2024-01-25T08:46:53;7.87;;;2.97;;
49728;SDS011;66333;49.798;10.968;2024-01-25T08:49:21;7.70;;;2.90;;
49728;SDS011;66333;49.798;10.968;2024-01-25T08:51:52;9.53;;;2.73;;
49728;SDS011;66333;49.798;10.968;2024-01-25T08:54:22;6.43;;;2.43;;
49728;SDS011;66333;49.798;10.968;2024-01-25T08:56:52;9.73;;;2.93;;
49728;SDS011;66333;49.798;10.968;2024-01-25T08:59:23;9.68;;;3.65;;
49728;SDS011;66333;49.798;10.968;2024-01-25T09:01:55;8.30;;;2.80;;
49728;SDS011;66333;49.798;10.968;2024-01-25T09:04:25;7.47;;;2.60;;
49728;SDS011;66333;49.798;10.968;2024-01-25T09:06:51;9.13;;;2.60;;
49728;SDS011;66333;49.798;10.968;2024-01-25T09:09:19;7.63;;;2.70;;
49728;SDS011;66333;49.798;10.968;2024-01-25T09:11:50;7.53;;;2.80;;
49728;SDS011;66333;49.798;10.968;2024-01-25T09:14:20;8.17;;;2.60;;
49728;SDS011;66333;49.798;10.968;2024-01-25T09:16:51;9.87;;;2.97;;
49728;SDS011;66333;49.798;10.968;2024-01-25T09:19:23;8.07;;;2.50;;
49728;SDS011;66333;49.798;10.968;2024-01-25T09:21:51;7.40;;;2.67;;
49728;SDS011;66333;49.798;10.968;2024-01-25T09:24:19;6.53;;;2.20;;
49728;SDS011;66333;49.798;10.968;2024-01-25T09:26:51;8.30;;;2.20;;
49728;SDS011;66333;49.798;10.968;2024-01-25T09:29:27;8.67;;;2.60;;
49728;SDS011;66333;49.798;10.968;2024-01-25T09:31:58;6.70;;;2.67;;
49728;SDS011;66333;49.798;10.968;2024-01-25T09:34:28;8.73;;;2.47;;
49728;SDS011;66333;49.798;10.968;2024-01-25T09:36:58;7.20;;;2.57;;
49728;SDS011;66333;49.798;10.968;2024-01-25T09:39:28;9.13;;;2.50;;
49728;SDS011;66333;49.798;10.968;2024-01-25T09:42:04;9.07;;;2.70;;
49728;SDS011;66333;49.798;10.968;2024-01-25T09:44:33;6.82;;;3.10;;
49728;SDS011;66333;49.798;10.968;2024-01-25T09:47:09;8.93;;;2.60;;
49728;SDS011;66333;49.798;10.968;2024-01-25T09:49:41;7.27;;;2.50;;
49728;SDS011;66333;49.798;10.968;2024-01-25T09:52:14;7.38;;;2.20;;
49728;SDS011;66333;49.798;10.968;2024-01-25T09:54:54;8.03;;;2.40;;
49728;SDS011;66333;49.798;10.968;2024-01-25T10:00:13;7.17;;;2.63;;
49728;SDS011;66333;49.798;10.968;2024-01-25T10:02:43;6.57;;;2.67;;
49728;SDS011;66333;49.798;10.968;2024-01-25T10:05:10;6.67;;;2.13;;
49728;SDS011;66333;49.798;10.968;2024-01-25T10:07:39;10.23;;;2.77;;
49728;SDS011;66333;49.798;10.968;2024-01-25T10:10:08;7.70;;;2.70;;
49728;SDS011;66333;49.798;10.968;2024-01-25T10:12:49;7.63;;;2.60;;
49728;SDS011;66333;49.798;10.968;2024-01-25T10:15:19;6.87;;;2.50;;
49728;SDS011;66333;49.798;10.968;2024-01-25T10:17:50;6.97;;;2.27;;
49728;SDS011;66333;49.798;10.968;2024-01-25T10:20:23;6.87;;;2.80;;
49728;SDS011;66333;49.798;10.968;2024-01-25T10:22:53;7.57;;;2.67;;
49728;SDS011;66333;49.798;10.968;2024-01-25T10:25:23;7.10;;;2.50;;
49728;SDS011;66333;49.798;10.968;2024-01-25T10:28:19;8.48;;;2.92;;
49728;SDS011;66333;49.798;10.968;2024-01-25T10:30:50;8.43;;;2.45;;
49728;SDS011;66333;49.798;10.968;2024-01-25T10:33:25;9.43;;;2.60;;
49728;SDS011;66333;49.798;10.968;2024-01-25T10:35:57;10.20;;;3.33;;
49728;SDS011;66333;49.798;10.968;2024-01-25T10:38:29;6.80;;;2.47;;
49728;SDS011;66333;49.798;10.968;2024-01-25T10:40:59;8.43;;;2.77;;
49728;SDS011;66333;49.798;10.968;2024-01-25T10:43:30;7.77;;;2.50;;
49728;SDS011;66333;49.798;10.968;2024-01-25T10:46:02;9.88;;;2.65;;
49728;SDS011;66333;49.798;10.968;2024-01-25T10:48:38;7.90;;;2.67;;
49728;SDS011;66333;49.798;10.968;2024-01-25T10:51:10;7.00;;;2.80;;
49728;SDS011;66333;49.798;10.968;2024-01-25T10:56:14;7.33;;;2.30;;
49728;SDS011;66333;49.798;10.968;2024-01-25T10:58:51;5.90;;;2.40;;
49728;SDS011;66333;49.798;10.968;2024-01-25T11:01:26;8.27;;;2.57;;
49728;SDS011;66333;49.798;10.968;2024-01-25T11:04:02;10.23;;;2.83;;
49728;SDS011;66333;49.798;10.968;2024-01-25T11:06:43;7.30;;;2.40;;
49728;SDS011;66333;49.798;10.968;2024-01-25T11:09:16;9.97;;;2.67;;
49728;SDS011;66333;49.798;10.968;2024-01-25T11:11:44;7.40;;;2.37;;
49728;SDS011;66333;49.798;10.968;2024-01-25T11:16:57;9.10;;;2.30;;
49728;SDS011;66333;49.798;10.968;2024-01-25T11:19:43;6.77;;;2.33;;
49728;SDS011;66333;49.798;10.968;2024-01-25T11:22:11;5.90;;;2.37;;
49728;SDS011;66333;49.798;10.968;2024-01-25T11:24:40;7.67;;;2.50;;
49728;SDS011;66333;49.798;10.968;2024-01-25T11:27:09;6.73;;;2.53;;
49728;SDS011;66333;49.798;10.968;2024-01-25T11:29:41;7.47;;;2.50;;
49728;SDS011;66333;49.798;10.968;2024-01-25T11:32:12;7.57;;;2.60;;
49728;SDS011;66333;49.798;10.968;2024-01-25T11:34:43;6.47;;;2.60;;
49728;SDS011;66333;49.798;10.968;2024-01-25T11:37:11;7.97;;;2.80;;
49728;SDS011;66333;49.798;10.968;2024-01-25T11:39:44;6.88;;;2.40;;
49728;SDS011;66333;49.798;10.968;2024-01-25T11:42:14;5.97;;;2.20;;
49728;SDS011;66333;49.798;10.968;2024-01-25T11:44:48;7.17;;;2.60;;
49728;SDS011;66333;49.798;10.968;2024-01-25T11:47:19;7.43;;;2.43;;
49728;SDS011;66333;49.798;10.968;2024-01-25T11:49:55;6.87;;;2.47;;
49728;SDS011;66333;49.798;10.968;2024-01-25T11:52:23;7.00;;;2.30;;
49728;SDS011;66333;49.798;10.968;2024-01-25T11:54:52;6.32;;;2.22;;
49728;SDS011;66333;49.798;10.968;2024-01-25T11:57:21;7.93;;;2.30;;
49728;SDS011;66333;49.798;10.968;2024-01-25T11:59:54;6.28;;;2.08;;
49728;SDS011;66333;49.798;10.968;2024-01-25T12:02:26;5.70;;;2.20;;
49728;SDS011;66333;49.798;10.968;2024-01-25T12:05:01;6.00;;;2.40;;
49728;SDS011;66333;49.798;10.968;2024-01-25T12:07:33;6.60;;;2.17;;
49728;SDS011;66333;49.798;10.968;2024-01-25T12:10:14;9.60;;;2.67;;
49728;SDS011;66333;49.798;10.968;2024-01-25T12:12:42;7.53;;;2.00;;
49728;SDS011;66333;49.798;10.968;2024-01-25T12:18:00;7.00;;;2.47;;
49728;SDS011;66333;49.798;10.968;2024-01-25T12:20:33;6.47;;;2.40;;
49728;SDS011;66333;49.798;10.968;2024-01-25T12:23:07;7.17;;;2.50;;
49728;SDS011;66333;49.798;10.968;2024-01-25T12:25:43;6.10;;;2.07;;
49728;SDS011;66333;49.798;10.968;2024-01-25T12:28:14;7.47;;;2.50;;
49728;SDS011;66333;49.798;10.968;2024-01-25T12:30:58;7.30;;;2.10;;
49728;SDS011;66333;49.798;10.968;2024-01-25T12:33:27;7.57;;;2.40;;
49728;SDS011;66333;49.798;10.968;2024-01-25T12:36:04;7.70;;;2.50;;
49728;SDS011;66333;49.798;10.968;2024-01-25T12:38:41;7.03;;;2.20;;
49728;SDS011;66333;49.798;10.968;2024-01-25T12:41:11;6.63;;;2.03;;
49728;SDS011;66333;49.798;10.968;2024-01-25T12:43:41;7.55;;;2.67;;
49728;SDS011;66333;49.798;10.968;2024-01-25T12:46:13;5.83;;;2.30;;
49728;SDS011;66333;49.798;10.968;2024-01-25T12:48:43;8.07;;;2.53;;
49728;SDS011;66333;49.798;10.968;2024-01-25T12:51:11;9.13;;;3.10;;
49728;SDS011;66333;49.798;10.968;2024-01-25T12:53:39;6.70;;;2.20;;
49728;SDS011;66333;49.798;10.968;2024-01-25T12:56:07;6.03;;;2.07;;
49728;SDS011;66333;49.798;10.968;2024-01-25T12:58:38;8.82;;;2.60;;
49728;SDS011;66333;49.798;10.968;2024-01-25T13:01:08;5.73;;;2.10;;
49728;SDS011;66333;49.798;10.968;2024-01-25T13:03:55;6.80;;;2.57;;
49728;SDS011;66333;49.798;10.968;2024-01-25T13:06:32;10.40;;;2.57;;
49728;SDS011;66333;49.798;10.968;2024-01-25T13:09:09;6.77;;;2.10;;
49728;SDS011;66333;49.798;10.968;2024-01-25T13:11:38;6.33;;;2.17;;
49728;SDS011;66333;49.798;10.968;2024-01-25T13:14:07;6.55;;;2.40;;
49728;SDS011;66333;49.798;10.968;2024-01-25T13:16:36;6.13;;;2.40;;
49728;SDS011;66333;49.798;10.968;2024-01-25T13:19:10;7.83;;;2.33;;
49728;SDS011;66333;49.798;10.968;2024-01-25T13:21:41;7.50;;;2.23;;
49728;SDS011;66333;49.798;10.968;2024-01-25T13:24:11;8.70;;;3.00;;
49728;SDS011;66333;49.798;10.968;2024-01-25T13:26:39;7.83;;;2.20;;
49728;SDS011;66333;49.798;10.968;2024-01-25T13:29:06;7.93;;;2.50;;
49728;SDS011;66333;49.798;10.968;2024-01-25T13:31:39;6.53;;;2.33;;
49728;SDS011;66333;49.798;10.968;2024-01-25T13:34:28;5.93;;;2.03;;
49728;SDS011;66333;49.798;10.968;2024-01-25T13:36:54;7.43;;;2.20;;
49728;SDS011;66333;49.798;10.968;2024-01-25T13:39:25;7.80;;;2.47;;
49728;SDS011;66333;49.798;10.968;2024-01-25T13:41:55;7.07;;;2.23;;
49728;SDS011;66333;49.798;10.968;2024-01-25T13:44:24;5.85;;;2.08;;
49728;SDS011;66333;49.798;10.968;2024-01-25T13:47:05;7.37;;;2.43;;
49728;SDS011;66333;49.798;10.968;2024-01-25T13:49:48;8.07;;;2.43;;
49728;SDS011;66333;49.798;10.968;2024-01-25T13:52:18;7.15;;;2.28;;
49728;SDS011;66333;49.798;10.968;2024-01-25T13:54:50;6.60;;;2.20;;
49728;SDS011;66333;49.798;10.968;2024-01-25T13:57:22;7.07;;;2.20;;
49728;SDS011;66333;49.798;10.968;2024-01-25T13:59:52;6.90;;;2.10;;
49728;SDS011;66333;49.798;10.968;2024-01-25T14:02:18;7.97;;;2.40;;
49728;SDS011;66333;49.798;10.968;2024-01-25T14:05:01;7.73;;;2.30;;
49728;SDS011;66333;49.798;10.968;2024-01-25T14:07:32;7.07;;;2.73;;
49728;SDS011;66333;49.798;10.968;2024-01-25T14:10:03;6.72;;;2.17;;
49728;SDS011;66333;49.798;10.968;2024-01-25T14:12:33;6.07;;;2.00;;
49728;SDS011;66333;49.798;10.968;2024-01-25T14:15:01;5.77;;;2.23;;
49728;SDS011;66333;49.798;10.968;2024-01-25T14:17:31;5.13;;;2.00;;
49728;SDS011;66333;49.798;10.968;2024-01-25T14:20:16;7.63;;;2.30;;
49728;SDS011;66333;49.798;10.968;2024-01-25T14:22:49;5.43;;;2.00;;
49728;SDS011;66333;49.798;10.968;2024-01-25T14:25:19;6.60;;;2.10;;
49728;SDS011;66333;49.798;10.968;2024-01-25T14:27:55;8.10;;;2.17;;
49728;SDS011;66333;49.798;10.968;2024-01-25T14:30:23;6.33;;;2.17;;
49728;SDS011;66333;49.798;10.968;2024-01-25T14:32:51;6.67;;;2.20;;
49728;SDS011;66333;49.798;10.968;2024-01-25T14:35:28;5.38;;;2.05;;
49728;SDS011;66333;49.798;10.968;2024-01-25T14:38:05;8.63;;;2.50;;
49728;SDS011;66333;49.798;10.968;2024-01-25T14:40:32;6.17;;;2.10;;
49728;SDS011;66333;49.798;10.968;2024-01-25T14:43:02;7.67;;;2.37;;
49728;SDS011;66333;49.798;10.968;2024-01-25T14:45:32;6.77;;;2.13;;
49728;SDS011;66333;49.798;10.968;2024-01-25T14:48:04;6.73;;;2.23;;
49728;SDS011;66333;49.798;10.968;2024-01-25T14:50:33;5.35;;;2.03;;
49728;SDS011;66333;49.798;10.968;2024-01-25T14:53:00;6.10;;;2.67;;
49728;SDS011;66333;49.798;10.968;2024-01-25T14:55:27;4.97;;;1.80;;
49728;SDS011;66333;49.798;10.968;2024-01-25T14:58:09;4.95;;;1.80;;
49728;SDS011;66333;49.798;10.968;2024-01-25T15:00:42;7.33;;;2.30;;
49728;SDS011;66333;49.798;10.968;2024-01-25T15:03:11;5.55;;;2.53;;
49728;SDS011;66333;49.798;10.968;2024-01-25T15:05:42;7.67;;;2.20;;
49728;SDS011;66333;49.798;10.968;2024-01-25T15:08:11;4.97;;;1.93;;
49728;SDS011;66333;49.798;10.968;2024-01-25T15:10:40;5.40;;;2.15;;
49728;SDS011;66333;49.798;10.968;2024-01-25T15:13:07;4.47;;;1.77;;